sensor_id;sensor_type;location;lat;lon;timestamp;temperature;humidity
5901;DHT22;2976;49.764;9.796;2022-08-19T00:00:20;19.50;1.00
5901;DHT22;2976;49.764;9.796;2022-08-19T00:02:46;19.50;1.00
5901;DHT22;2976;49.764;9.796;2022-08-19T00:05:13;19.50;1.00
5901;DHT22;2976;49.764;9.796;2022-08-19T00:07:39;19.40;1.00
5901;DHT22;2976;49.764;9.796;2022-08-19T00:10:06;19.40;2.80
5901;DHT22;2976;49.764;9.796;2022-08-19T00:12:33;19.30;5.10
5901;DHT22;2976;49.764;9.796;2022-08-19T00:14:59;19.30;7.30
5901;DHT22;2976;49.764;9.796;2022-08-19T00:17:25;19.20;11.10
5901;DHT22;2976;49.764;9.796;2022-08-19T00:19:51;19.20;13.00
5901;DHT22;2976;49.764;9.796;2022-08-19T00:22:16;19.20;15.50
5901;DHT22;2976;49.764;9.796;2022-08-19T00:24:44;19.10;19.10
5901;DHT22;2976;49.764;9.796;2022-08-19T00:27:10;19.10;21.50
5901;DHT22;2976;49.764;9.796;2022-08-19T00:29:36;19.10;23.10
5901;DHT22;2976;49.764;9.796;2022-08-19T00:32:02;19.00;26.40
5901;DHT22;2976;49.764;9.796;2022-08-19T00:34:28;19.00;29.70
5901;DHT22;2976;49.764;9.796;2022-08-19T00:36:54;18.90;32.70
5901;DHT22;2976;49.764;9.796;2022-08-19T00:39:20;18.90;33.70
5901;DHT22;2976;49.764;9.796;2022-08-19T00:41:47;18.90;35.20
5901;DHT22;2976;49.764;9.796;2022-08-19T00:44:21;18.80;36.20
5901;DHT22;2976;49.764;9.796;2022-08-19T00:46:49;18.80;36.40
5901;DHT22;2976;49.764;9.796;2022-08-19T00:49:24;18.80;37.90
5901;DHT22;2976;49.764;9.796;2022-08-19T00:51:55;18.80;37.80
5901;DHT22;2976;49.764;9.796;2022-08-19T00:54:23;18.70;40.90
5901;DHT22;2976;49.764;9.796;2022-08-19T00:56:49;18.70;44.10
5901;DHT22;2976;49.764;9.796;2022-08-19T00:59:16;18.70;46.50
5901;DHT22;2976;49.764;9.796;2022-08-19T01:01:43;18.70;49.50
5901;DHT22;2976;49.764;9.796;2022-08-19T01:04:09;18.60;50.90
5901;DHT22;2976;49.764;9.796;2022-08-19T01:06:39;18.60;50.50
5901;DHT22;2976;49.764;9.796;2022-08-19T01:09:06;18.60;49.30
5901;DHT22;2976;49.764;9.796;2022-08-19T01:11:36;18.60;49.70
5901;DHT22;2976;49.764;9.796;2022-08-19T01:14:02;18.60;54.30
5901;DHT22;2976;49.764;9.796;2022-08-19T01:16:28;18.50;59.00
5901;DHT22;2976;49.764;9.796;2022-08-19T01:18:55;18.50;60.40
5901;DHT22;2976;49.764;9.796;2022-08-19T01:21:39;18.60;61.20
5901;DHT22;2976;49.764;9.796;2022-08-19T01:24:06;18.60;60.80
5901;DHT22;2976;49.764;9.796;2022-08-19T01:26:39;18.50;61.40
5901;DHT22;2976;49.764;9.796;2022-08-19T01:29:06;18.50;63.20
5901;DHT22;2976;49.764;9.796;2022-08-19T01:31:33;18.40;66.60
5901;DHT22;2976;49.764;9.796;2022-08-19T01:34:00;18.40;67.00
5901;DHT22;2976;49.764;9.796;2022-08-19T01:36:39;18.30;67.20
5901;DHT22;2976;49.764;9.796;2022-08-19T01:39:10;18.20;67.20
5901;DHT22;2976;49.764;9.796;2022-08-19T01:41:36;18.10;68.90
5901;DHT22;2976;49.764;9.796;2022-08-19T01:44:05;18.00;71.30
5901;DHT22;2976;49.764;9.796;2022-08-19T01:46:31;18.00;75.50
5901;DHT22;2976;49.764;9.796;2022-08-19T01:48:58;17.90;78.80
5901;DHT22;2976;49.764;9.796;2022-08-19T01:51:23;17.90;81.70
5901;DHT22;2976;49.764;9.796;2022-08-19T01:53:50;17.90;86.10
5901;DHT22;2976;49.764;9.796;2022-08-19T01:56:17;18.00;91.50
5901;DHT22;2976;49.764;9.796;2022-08-19T01:58:49;18.00;94.40
5901;DHT22;2976;49.764;9.796;2022-08-19T02:01:17;18.10;94.90
5901;DHT22;2976;49.764;9.796;2022-08-19T02:03:43;18.10;94.20
5901;DHT22;2976;49.764;9.796;2022-08-19T02:06:08;18.20;93.30
5901;DHT22;2976;49.764;9.796;2022-08-19T02:08:36;18.20;92.80
5901;DHT22;2976;49.764;9.796;2022-08-19T02:11:02;18.20;92.70
5901;DHT22;2976;49.764;9.796;2022-08-19T02:13:28;18.20;94.00
5901;DHT22;2976;49.764;9.796;2022-08-19T02:15:53;18.20;94.10
5901;DHT22;2976;49.764;9.796;2022-08-19T02:18:19;18.20;94.70
5901;DHT22;2976;49.764;9.796;2022-08-19T02:20:45;18.20;95.00
5901;DHT22;2976;49.764;9.796;2022-08-19T02:23:13;18.20;95.40
5901;DHT22;2976;49.764;9.796;2022-08-19T02:25:39;18.10;95.90
5901;DHT22;2976;49.764;9.796;2022-08-19T02:28:05;18.10;96.20
5901;DHT22;2976;49.764;9.796;2022-08-19T02:30:30;18.10;96.50
5901;DHT22;2976;49.764;9.796;2022-08-19T02:32:56;18.00;96.80
5901;DHT22;2976;49.764;9.796;2022-08-19T02:35:22;17.90;95.60
5901;DHT22;2976;49.764;9.796;2022-08-19T02:37:48;17.80;95.60
5901;DHT22;2976;49.764;9.796;2022-08-19T02:40:33;17.70;97.80
5901;DHT22;2976;49.764;9.796;2022-08-19T02:43:03;17.70;99.90
5901;DHT22;2976;49.764;9.796;2022-08-19T02:45:33;17.70;99.90
5901;DHT22;2976;49.764;9.796;2022-08-19T02:47:59;17.70;99.90
5901;DHT22;2976;49.764;9.796;2022-08-19T02:50:25;17.70;99.90
5901;DHT22;2976;49.764;9.796;2022-08-19T02:52:51;17.70;99.90
5901;DHT22;2976;49.764;9.796;2022-08-19T02:55:16;17.60;99.70
5901;DHT22;2976;49.764;9.796;2022-08-19T02:57:42;17.50;99.90
5901;DHT22;2976;49.764;9.796;2022-08-19T03:00:08;17.50;99.90
5901;DHT22;2976;49.764;9.796;2022-08-19T03:02:38;17.40;99.90
5901;DHT22;2976;49.764;9.796;2022-08-19T03:05:05;17.30;99.90
5901;DHT22;2976;49.764;9.796;2022-08-19T03:07:32;17.30;99.90
5901;DHT22;2976;49.764;9.796;2022-08-19T03:09:58;17.30;99.90
5901;DHT22;2976;49.764;9.796;2022-08-19T03:12:23;17.30;99.90
5901;DHT22;2976;49.764;9.796;2022-08-19T03:14:49;17.30;99.90
5901;DHT22;2976;49.764;9.796;2022-08-19T03:17:14;17.40;99.90
5901;DHT22;2976;49.764;9.796;2022-08-19T03:19:40;17.50;99.90
5901;DHT22;2976;49.764;9.796;2022-08-19T03:22:05;17.50;99.90
5901;DHT22;2976;49.764;9.796;2022-08-19T03:24:31;17.60;99.90
5901;DHT22;2976;49.764;9.796;2022-08-19T03:26:58;17.60;99.90
5901;DHT22;2976;49.764;9.796;2022-08-19T03:29:28;17.60;99.90
5901;DHT22;2976;49.764;9.796;2022-08-19T03:31:54;17.70;99.90
5901;DHT22;2976;49.764;9.796;2022-08-19T03:34:25;17.60;99.90
5901;DHT22;2976;49.764;9.796;2022-08-19T03:36:53;17.60;99.90
5901;DHT22;2976;49.764;9.796;2022-08-19T03:39:19;17.60;99.90
5901;DHT22;2976;49.764;9.796;2022-08-19T03:41:46;17.50;99.90
5901;DHT22;2976;49.764;9.796;2022-08-19T03:44:18;17.40;99.90
5901;DHT22;2976;49.764;9.796;2022-08-19T03:46:48;17.40;99.90
5901;DHT22;2976;49.764;9.796;2022-08-19T03:49:15;17.30;99.90
5901;DHT22;2976;49.764;9.796;2022-08-19T03:51:41;17.20;99.90
5901;DHT22;2976;49.764;9.796;2022-08-19T03:54:10;17.20;99.90
5901;DHT22;2976;49.764;9.796;2022-08-19T03:56:37;17.10;99.90
5901;DHT22;2976;49.764;9.796;2022-08-19T03:59:05;17.20;99.90
5901;DHT22;2976;49.764;9.796;2022-08-19T04:01:31;17.10;99.90
5901;DHT22;2976;49.764;9.796;2022-08-19T04:03:59;17.20;99.90
5901;DHT22;2976;49.764;9.796;2022-08-19T04:06:31;17.20;99.90
5901;DHT22;2976;49.764;9.796;2022-08-19T04:08:58;17.20;99.90
5901;DHT22;2976;49.764;9.796;2022-08-19T04:11:28;17.20;99.90
5901;DHT22;2976;49.764;9.796;2022-08-19T04:13:55;17.20;99.90
5901;DHT22;2976;49.764;9.796;2022-08-19T04:16:22;17.20;99.90
5901;DHT22;2976;49.764;9.796;2022-08-19T04:18:49;17.20;99.90
5901;DHT22;2976;49.764;9.796;2022-08-19T04:21:17;17.20;99.90
5901;DHT22;2976;49.764;9.796;2022-08-19T04:23:43;17.20;99.90
5901;DHT22;2976;49.764;9.796;2022-08-19T04:26:17;17.10;99.90
5901;DHT22;2976;49.764;9.796;2022-08-19T04:28:44;17.10;99.90
5901;DHT22;2976;49.764;9.796;2022-08-19T04:31:15;17.00;99.90
5901;DHT22;2976;49.764;9.796;2022-08-19T04:33:41;17.00;99.90
5901;DHT22;2976;49.764;9.796;2022-08-19T04:36:07;16.90;99.90
5901;DHT22;2976;49.764;9.796;2022-08-19T04:38:33;16.90;99.90
5901;DHT22;2976;49.764;9.796;2022-08-19T04:40:58;16.90;99.90
5901;DHT22;2976;49.764;9.796;2022-08-19T04:43:45;16.90;99.90
5901;DHT22;2976;49.764;9.796;2022-08-19T04:46:14;16.90;99.90
5901;DHT22;2976;49.764;9.796;2022-08-19T04:48:40;17.00;99.90
5901;DHT22;2976;49.764;9.796;2022-08-19T04:51:09;17.10;99.90
5901;DHT22;2976;49.764;9.796;2022-08-19T04:53:37;17.20;99.90
5901;DHT22;2976;49.764;9.796;2022-08-19T04:56:09;17.30;99.90
5901;DHT22;2976;49.764;9.796;2022-08-19T04:58:36;17.40;99.90
5901;DHT22;2976;49.764;9.796;2022-08-19T05:01:03;17.50;99.90
5901;DHT22;2976;49.764;9.796;2022-08-19T05:03:29;17.60;99.90
5901;DHT22;2976;49.764;9.796;2022-08-19T05:06:04;17.70;99.90
5901;DHT22;2976;49.764;9.796;2022-08-19T05:08:33;17.80;99.90
5901;DHT22;2976;49.764;9.796;2022-08-19T05:10:59;17.90;99.90
5901;DHT22;2976;49.764;9.796;2022-08-19T05:13:26;18.00;99.90
5901;DHT22;2976;49.764;9.796;2022-08-19T05:15:58;18.10;99.90
5901;DHT22;2976;49.764;9.796;2022-08-19T05:18:25;18.20;99.90
5901;DHT22;2976;49.764;9.796;2022-08-19T05:21:15;18.30;99.90
5901;DHT22;2976;49.764;9.796;2022-08-19T05:23:59;18.30;99.90
5901;DHT22;2976;49.764;9.796;2022-08-19T05:26:25;18.40;99.90
5901;DHT22;2976;49.764;9.796;2022-08-19T05:28:52;18.50;99.90
5901;DHT22;2976;49.764;9.796;2022-08-19T05:31:18;18.60;99.90
5901;DHT22;2976;49.764;9.796;2022-08-19T05:33:44;18.60;98.80
5901;DHT22;2976;49.764;9.796;2022-08-19T05:36:09;18.70;97.70
5901;DHT22;2976;49.764;9.796;2022-08-19T05:38:35;18.70;96.90
5901;DHT22;2976;49.764;9.796;2022-08-19T05:41:08;18.70;98.00
5901;DHT22;2976;49.764;9.796;2022-08-19T05:43:34;18.70;96.60
5901;DHT22;2976;49.764;9.796;2022-08-19T05:45:59;18.60;97.60
5901;DHT22;2976;49.764;9.796;2022-08-19T05:48:25;18.60;97.70
5901;DHT22;2976;49.764;9.796;2022-08-19T05:50:51;18.60;99.70
5901;DHT22;2976;49.764;9.796;2022-08-19T05:53:17;18.70;97.60
5901;DHT22;2976;49.764;9.796;2022-08-19T05:55:43;18.70;97.80
5901;DHT22;2976;49.764;9.796;2022-08-19T05:58:09;18.80;96.50
5901;DHT22;2976;49.764;9.796;2022-08-19T06:00:36;18.90;95.50
5901;DHT22;2976;49.764;9.796;2022-08-19T06:03:02;19.10;92.90
5901;DHT22;2976;49.764;9.796;2022-08-19T06:05:31;19.10;91.80
5901;DHT22;2976;49.764;9.796;2022-08-19T06:07:57;19.20;90.90
5901;DHT22;2976;49.764;9.796;2022-08-19T06:10:24;19.30;88.70
5901;DHT22;2976;49.764;9.796;2022-08-19T06:12:51;19.40;86.10
5901;DHT22;2976;49.764;9.796;2022-08-19T06:15:17;19.50;86.20
5901;DHT22;2976;49.764;9.796;2022-08-19T06:17:43;19.60;76.10
5901;DHT22;2976;49.764;9.796;2022-08-19T06:20:14;19.70;74.60
5901;DHT22;2976;49.764;9.796;2022-08-19T06:22:42;19.90;64.20
5901;DHT22;2976;49.764;9.796;2022-08-19T06:25:08;20.00;58.90
5901;DHT22;2976;49.764;9.796;2022-08-19T06:27:34;20.10;55.50
5901;DHT22;2976;49.764;9.796;2022-08-19T06:30:01;20.20;53.30
5901;DHT22;2976;49.764;9.796;2022-08-19T06:32:26;20.30;46.50
5901;DHT22;2976;49.764;9.796;2022-08-19T06:34:52;20.50;43.30
5901;DHT22;2976;49.764;9.796;2022-08-19T06:37:17;20.50;40.70
5901;DHT22;2976;49.764;9.796;2022-08-19T06:39:44;20.50;39.90
5901;DHT22;2976;49.764;9.796;2022-08-19T06:42:10;20.60;40.10
5901;DHT22;2976;49.764;9.796;2022-08-19T06:44:39;20.50;43.00
5901;DHT22;2976;49.764;9.796;2022-08-19T06:47:08;20.60;42.00
5901;DHT22;2976;49.764;9.796;2022-08-19T06:49:34;20.60;45.90
5901;DHT22;2976;49.764;9.796;2022-08-19T06:52:01;20.60;46.20
5901;DHT22;2976;49.764;9.796;2022-08-19T06:54:27;20.60;46.00
5901;DHT22;2976;49.764;9.796;2022-08-19T06:56:55;20.50;47.10
5901;DHT22;2976;49.764;9.796;2022-08-19T06:59:23;20.60;48.80
5901;DHT22;2976;49.764;9.796;2022-08-19T07:01:55;20.60;49.20
5901;DHT22;2976;49.764;9.796;2022-08-19T07:04:29;20.60;45.90
5901;DHT22;2976;49.764;9.796;2022-08-19T07:07:03;20.60;48.00
5901;DHT22;2976;49.764;9.796;2022-08-19T07:09:31;20.50;52.00
5901;DHT22;2976;49.764;9.796;2022-08-19T07:11:57;20.50;53.20
5901;DHT22;2976;49.764;9.796;2022-08-19T07:14:25;20.60;50.00
5901;DHT22;2976;49.764;9.796;2022-08-19T07:16:52;20.60;50.90
5901;DHT22;2976;49.764;9.796;2022-08-19T07:19:20;20.60;52.40
5901;DHT22;2976;49.764;9.796;2022-08-19T07:21:48;20.70;50.70
5901;DHT22;2976;49.764;9.796;2022-08-19T07:24:15;20.90;45.50
5901;DHT22;2976;49.764;9.796;2022-08-19T07:26:42;21.00;36.60
5901;DHT22;2976;49.764;9.796;2022-08-19T07:29:08;21.00;35.50
5901;DHT22;2976;49.764;9.796;2022-08-19T07:31:34;21.00;34.00
5901;DHT22;2976;49.764;9.796;2022-08-19T07:34:07;21.10;37.20
5901;DHT22;2976;49.764;9.796;2022-08-19T07:36:35;21.10;36.10
5901;DHT22;2976;49.764;9.796;2022-08-19T07:39:06;21.10;33.80
5901;DHT22;2976;49.764;9.796;2022-08-19T07:41:34;21.00;35.20
5901;DHT22;2976;49.764;9.796;2022-08-19T07:43:59;21.00;35.80
5901;DHT22;2976;49.764;9.796;2022-08-19T07:46:32;21.00;38.60
5901;DHT22;2976;49.764;9.796;2022-08-19T07:48:58;21.20;31.50
5901;DHT22;2976;49.764;9.796;2022-08-19T07:51:24;21.40;27.80
5901;DHT22;2976;49.764;9.796;2022-08-19T07:53:50;21.70;18.70
5901;DHT22;2976;49.764;9.796;2022-08-19T07:56:17;21.70;11.20
5901;DHT22;2976;49.764;9.796;2022-08-19T07:58:44;21.70;13.10
5901;DHT22;2976;49.764;9.796;2022-08-19T08:01:14;21.80;11.60
5901;DHT22;2976;49.764;9.796;2022-08-19T08:03:41;21.80;5.80
5901;DHT22;2976;49.764;9.796;2022-08-19T08:06:25;21.90;6.40
5901;DHT22;2976;49.764;9.796;2022-08-19T08:09:10;22.00;1.00
5901;DHT22;2976;49.764;9.796;2022-08-19T08:14:23;22.50;1.00
5901;DHT22;2976;49.764;9.796;2022-08-19T08:16:49;22.60;1.00
5901;DHT22;2976;49.764;9.796;2022-08-19T08:19:22;22.40;1.00
5901;DHT22;2976;49.764;9.796;2022-08-19T08:21:49;22.10;1.00
5901;DHT22;2976;49.764;9.796;2022-08-19T08:24:15;22.10;1.00
5901;DHT22;2976;49.764;9.796;2022-08-19T08:26:41;22.20;1.00
5901;DHT22;2976;49.764;9.796;2022-08-19T08:29:09;22.30;1.00
5901;DHT22;2976;49.764;9.796;2022-08-19T08:31:38;22.30;1.00
5901;DHT22;2976;49.764;9.796;2022-08-19T08:34:04;22.40;1.00
5901;DHT22;2976;49.764;9.796;2022-08-19T08:36:29;22.50;1.00
5901;DHT22;2976;49.764;9.796;2022-08-19T08:38:58;22.70;1.00
5901;DHT22;2976;49.764;9.796;2022-08-19T08:43:56;22.80;1.00
5901;DHT22;2976;49.764;9.796;2022-08-19T08:46:39;22.50;1.00
5901;DHT22;2976;49.764;9.796;2022-08-19T08:52:05;22.70;1.00
5901;DHT22;2976;49.764;9.796;2022-08-19T08:54:38;22.80;1.00
5901;DHT22;2976;49.764;9.796;2022-08-19T08:57:14;22.80;1.00
5901;DHT22;2976;49.764;9.796;2022-08-19T08:59:42;22.70;1.00
5901;DHT22;2976;49.764;9.796;2022-08-19T09:02:08;22.70;1.00
5901;DHT22;2976;49.764;9.796;2022-08-19T09:04:36;22.70;1.00
5901;DHT22;2976;49.764;9.796;2022-08-19T09:09:42;22.90;1.00
5901;DHT22;2976;49.764;9.796;2022-08-19T09:12:30;23.10;1.00
5901;DHT22;2976;49.764;9.796;2022-08-19T09:15:08;23.20;1.00
5901;DHT22;2976;49.764;9.796;2022-08-19T09:17:35;23.00;1.00
5901;DHT22;2976;49.764;9.796;2022-08-19T09:22:35;22.70;1.00
5901;DHT22;2976;49.764;9.796;2022-08-19T09:25:01;22.50;1.00
5901;DHT22;2976;49.764;9.796;2022-08-19T09:27:27;22.40;1.00
5901;DHT22;2976;49.764;9.796;2022-08-19T09:29:54;22.60;1.00
5901;DHT22;2976;49.764;9.796;2022-08-19T09:32:21;22.60;1.00
5901;DHT22;2976;49.764;9.796;2022-08-19T09:34:47;22.80;1.00
5901;DHT22;2976;49.764;9.796;2022-08-19T09:37:13;22.80;1.00
5901;DHT22;2976;49.764;9.796;2022-08-19T09:39:40;22.80;1.00
5901;DHT22;2976;49.764;9.796;2022-08-19T09:42:09;22.70;1.00
5901;DHT22;2976;49.764;9.796;2022-08-19T09:44:41;22.70;1.00
5901;DHT22;2976;49.764;9.796;2022-08-19T09:47:08;22.60;1.00
5901;DHT22;2976;49.764;9.796;2022-08-19T09:49:34;22.70;1.00
5901;DHT22;2976;49.764;9.796;2022-08-19T09:52:00;23.00;1.00
5901;DHT22;2976;49.764;9.796;2022-08-19T09:54:26;23.20;1.00
5901;DHT22;2976;49.764;9.796;2022-08-19T09:56:57;23.30;1.00
5901;DHT22;2976;49.764;9.796;2022-08-19T09:59:23;23.30;1.00
5901;DHT22;2976;49.764;9.796;2022-08-19T10:01:50;23.50;1.00
5901;DHT22;2976;49.764;9.796;2022-08-19T10:04:17;23.50;99.90
5901;DHT22;2976;49.764;9.796;2022-08-19T10:06:42;23.30;99.90
5901;DHT22;2976;49.764;9.796;2022-08-19T10:09:09;23.00;99.90
5901;DHT22;2976;49.764;9.796;2022-08-19T10:11:39;22.80;99.90
5901;DHT22;2976;49.764;9.796;2022-08-19T10:14:05;22.60;99.90
5901;DHT22;2976;49.764;9.796;2022-08-19T10:16:33;22.40;99.90
5901;DHT22;2976;49.764;9.796;2022-08-19T10:19:00;22.30;99.90
5901;DHT22;2976;49.764;9.796;2022-08-19T10:21:29;22.30;99.90
5901;DHT22;2976;49.764;9.796;2022-08-19T10:23:59;22.30;99.90
5901;DHT22;2976;49.764;9.796;2022-08-19T10:26:28;22.20;99.90
5901;DHT22;2976;49.764;9.796;2022-08-19T10:28:54;22.30;99.90
5901;DHT22;2976;49.764;9.796;2022-08-19T10:31:23;22.30;99.90
5901;DHT22;2976;49.764;9.796;2022-08-19T10:33:50;22.50;99.90
5901;DHT22;2976;49.764;9.796;2022-08-19T10:36:19;22.50;99.90
5901;DHT22;2976;49.764;9.796;2022-08-19T10:38:48;22.70;1.00
5901;DHT22;2976;49.764;9.796;2022-08-19T10:41:16;22.70;99.90
5901;DHT22;2976;49.764;9.796;2022-08-19T10:43:44;23.00;99.90
5901;DHT22;2976;49.764;9.796;2022-08-19T10:46:13;23.20;1.00
5901;DHT22;2976;49.764;9.796;2022-08-19T10:48:39;23.30;99.90
5901;DHT22;2976;49.764;9.796;2022-08-19T10:51:05;23.20;99.90
5901;DHT22;2976;49.764;9.796;2022-08-19T10:53:50;23.40;89.60
5901;DHT22;2976;49.764;9.796;2022-08-19T10:56:16;23.20;99.90
5901;DHT22;2976;49.764;9.796;2022-08-19T10:59:01;23.20;99.90
5901;DHT22;2976;49.764;9.796;2022-08-19T11:01:28;23.20;1.00
5901;DHT22;2976;49.764;9.796;2022-08-19T11:03:55;23.40;1.00
5901;DHT22;2976;49.764;9.796;2022-08-19T11:06:23;23.80;1.00
5901;DHT22;2976;49.764;9.796;2022-08-19T11:08:51;24.10;99.90
5901;DHT22;2976;49.764;9.796;2022-08-19T11:11:17;24.30;99.90
5901;DHT22;2976;49.764;9.796;2022-08-19T11:13:43;24.00;99.90
5901;DHT22;2976;49.764;9.796;2022-08-19T11:16:13;24.10;99.90
5901;DHT22;2976;49.764;9.796;2022-08-19T11:18:42;24.40;99.90
5901;DHT22;2976;49.764;9.796;2022-08-19T11:21:18;24.40;99.90
5901;DHT22;2976;49.764;9.796;2022-08-19T11:23:47;24.50;99.90
5901;DHT22;2976;49.764;9.796;2022-08-19T11:26:14;24.70;99.90
5901;DHT22;2976;49.764;9.796;2022-08-19T11:28:40;24.90;99.90
5901;DHT22;2976;49.764;9.796;2022-08-19T11:31:14;25.00;99.90
5901;DHT22;2976;49.764;9.796;2022-08-19T11:33:40;25.00;99.90
5901;DHT22;2976;49.764;9.796;2022-08-19T11:36:06;25.10;97.00
5901;DHT22;2976;49.764;9.796;2022-08-19T11:38:33;25.30;43.30
5901;DHT22;2976;49.764;9.796;2022-08-19T11:41:04;25.30;24.70
5901;DHT22;2976;49.764;9.796;2022-08-19T11:43:30;24.90;60.60
5901;DHT22;2976;49.764;9.796;2022-08-19T11:45:57;24.70;99.90
5901;DHT22;2976;49.764;9.796;2022-08-19T11:48:23;24.90;93.20
5901;DHT22;2976;49.764;9.796;2022-08-19T11:50:50;24.90;23.40
5901;DHT22;2976;49.764;9.796;2022-08-19T11:53:17;24.80;59.80
5901;DHT22;2976;49.764;9.796;2022-08-19T11:55:45;24.90;60.50
5901;DHT22;2976;49.764;9.796;2022-08-19T11:58:12;24.90;40.80
5901;DHT22;2976;49.764;9.796;2022-08-19T12:00:38;25.00;35.10
5901;DHT22;2976;49.764;9.796;2022-08-19T12:03:04;25.30;1.00
5901;DHT22;2976;49.764;9.796;2022-08-19T12:05:30;25.40;1.00
5901;DHT22;2976;49.764;9.796;2022-08-19T12:07:56;25.40;1.00
5901;DHT22;2976;49.764;9.796;2022-08-19T12:10:22;25.50;1.00
5901;DHT22;2976;49.764;9.796;2022-08-19T12:12:48;25.40;1.00
5901;DHT22;2976;49.764;9.796;2022-08-19T12:15:14;25.10;1.00
5901;DHT22;2976;49.764;9.796;2022-08-19T12:17:41;25.30;1.00
5901;DHT22;2976;49.764;9.796;2022-08-19T12:20:08;25.10;1.00
5901;DHT22;2976;49.764;9.796;2022-08-19T12:22:35;25.30;1.00
5901;DHT22;2976;49.764;9.796;2022-08-19T12:25:01;25.40;1.00
5901;DHT22;2976;49.764;9.796;2022-08-19T12:27:26;25.00;1.00
5901;DHT22;2976;49.764;9.796;2022-08-19T12:29:52;25.00;1.00
5901;DHT22;2976;49.764;9.796;2022-08-19T12:32:17;24.90;1.00
5901;DHT22;2976;49.764;9.796;2022-08-19T12:34:43;25.00;1.00
5901;DHT22;2976;49.764;9.796;2022-08-19T12:37:09;24.90;1.00
5901;DHT22;2976;49.764;9.796;2022-08-19T12:39:41;24.70;1.30
5901;DHT22;2976;49.764;9.796;2022-08-19T12:42:08;24.70;1.00
5901;DHT22;2976;49.764;9.796;2022-08-19T12:44:35;24.70;1.00
5901;DHT22;2976;49.764;9.796;2022-08-19T12:47:01;24.80;1.00
5901;DHT22;2976;49.764;9.796;2022-08-19T12:49:29;25.00;1.00
5901;DHT22;2976;49.764;9.796;2022-08-19T12:51:56;24.90;1.00
5901;DHT22;2976;49.764;9.796;2022-08-19T12:54:23;24.70;1.00
5901;DHT22;2976;49.764;9.796;2022-08-19T12:56:48;24.50;1.00
5901;DHT22;2976;49.764;9.796;2022-08-19T12:59:14;24.40;1.00
5901;DHT22;2976;49.764;9.796;2022-08-19T13:01:43;24.20;22.80
5901;DHT22;2976;49.764;9.796;2022-08-19T13:04:09;24.10;47.90
5901;DHT22;2976;49.764;9.796;2022-08-19T13:06:35;24.00;17.80
5901;DHT22;2976;49.764;9.796;2022-08-19T13:09:03;24.00;8.00
5901;DHT22;2976;49.764;9.796;2022-08-19T13:11:28;24.10;1.30
5901;DHT22;2976;49.764;9.796;2022-08-19T13:13:58;24.00;18.00
5901;DHT22;2976;49.764;9.796;2022-08-19T13:16:24;24.10;1.00
5901;DHT22;2976;49.764;9.796;2022-08-19T13:18:49;24.10;1.00
5901;DHT22;2976;49.764;9.796;2022-08-19T13:21:17;24.20;1.00
5901;DHT22;2976;49.764;9.796;2022-08-19T13:23:45;24.30;1.00
5901;DHT22;2976;49.764;9.796;2022-08-19T13:26:12;24.50;1.00
5901;DHT22;2976;49.764;9.796;2022-08-19T13:28:39;24.50;1.00
5901;DHT22;2976;49.764;9.796;2022-08-19T13:31:26;24.60;1.00
5901;DHT22;2976;49.764;9.796;2022-08-19T13:34:11;24.80;1.00
5901;DHT22;2976;49.764;9.796;2022-08-19T13:36:37;24.90;1.00
5901;DHT22;2976;49.764;9.796;2022-08-19T13:39:04;25.10;1.00
5901;DHT22;2976;49.764;9.796;2022-08-19T13:41:30;25.40;1.00
5901;DHT22;2976;49.764;9.796;2022-08-19T13:43:56;25.90;1.00
5901;DHT22;2976;49.764;9.796;2022-08-19T13:46:22;26.00;1.00
5901;DHT22;2976;49.764;9.796;2022-08-19T13:48:48;26.00;1.00
5901;DHT22;2976;49.764;9.796;2022-08-19T13:51:15;26.00;1.00
5901;DHT22;2976;49.764;9.796;2022-08-19T13:53:42;26.00;1.00
5901;DHT22;2976;49.764;9.796;2022-08-19T13:56:10;25.80;1.00
5901;DHT22;2976;49.764;9.796;2022-08-19T13:58:37;25.60;1.00
5901;DHT22;2976;49.764;9.796;2022-08-19T14:01:04;25.70;1.00
5901;DHT22;2976;49.764;9.796;2022-08-19T14:03:32;25.90;1.00
5901;DHT22;2976;49.764;9.796;2022-08-19T14:05:58;25.90;1.00
5901;DHT22;2976;49.764;9.796;2022-08-19T14:08:23;26.00;1.00
5901;DHT22;2976;49.764;9.796;2022-08-19T14:10:49;26.10;1.00
5901;DHT22;2976;49.764;9.796;2022-08-19T14:13:18;26.40;1.00
5901;DHT22;2976;49.764;9.796;2022-08-19T14:15:45;26.20;1.00
5901;DHT22;2976;49.764;9.796;2022-08-19T14:18:11;26.00;1.00
5901;DHT22;2976;49.764;9.796;2022-08-19T14:20:37;26.50;1.00
5901;DHT22;2976;49.764;9.796;2022-08-19T14:23:03;26.60;1.00
5901;DHT22;2976;49.764;9.796;2022-08-19T14:25:30;26.60;1.00
5901;DHT22;2976;49.764;9.796;2022-08-19T14:27:57;26.60;1.00
5901;DHT22;2976;49.764;9.796;2022-08-19T14:30:29;26.50;1.00
5901;DHT22;2976;49.764;9.796;2022-08-19T14:32:58;26.60;1.00
5901;DHT22;2976;49.764;9.796;2022-08-19T14:35:24;26.50;1.00
5901;DHT22;2976;49.764;9.796;2022-08-19T14:37:50;26.30;1.00
5901;DHT22;2976;49.764;9.796;2022-08-19T14:40:19;26.30;1.00
5901;DHT22;2976;49.764;9.796;2022-08-19T14:42:55;26.50;1.00
5901;DHT22;2976;49.764;9.796;2022-08-19T14:45:25;26.20;1.00
5901;DHT22;2976;49.764;9.796;2022-08-19T14:47:51;26.00;1.00
5901;DHT22;2976;49.764;9.796;2022-08-19T14:50:18;25.90;1.00
5901;DHT22;2976;49.764;9.796;2022-08-19T14:52:44;25.70;1.00
5901;DHT22;2976;49.764;9.796;2022-08-19T14:55:10;25.60;1.00
5901;DHT22;2976;49.764;9.796;2022-08-19T14:57:36;25.30;1.00
5901;DHT22;2976;49.764;9.796;2022-08-19T15:00:03;25.30;1.00
5901;DHT22;2976;49.764;9.796;2022-08-19T15:02:29;25.30;1.00
5901;DHT22;2976;49.764;9.796;2022-08-19T15:04:54;25.20;1.00
5901;DHT22;2976;49.764;9.796;2022-08-19T15:07:21;25.30;1.00
5901;DHT22;2976;49.764;9.796;2022-08-19T15:09:49;25.40;1.00
5901;DHT22;2976;49.764;9.796;2022-08-19T15:12:14;25.50;1.00
5901;DHT22;2976;49.764;9.796;2022-08-19T15:14:40;25.30;1.00
5901;DHT22;2976;49.764;9.796;2022-08-19T15:17:07;25.20;1.00
5901;DHT22;2976;49.764;9.796;2022-08-19T15:19:33;25.00;1.00
5901;DHT22;2976;49.764;9.796;2022-08-19T15:22:01;25.00;1.00
5901;DHT22;2976;49.764;9.796;2022-08-19T15:24:26;25.00;1.00
5901;DHT22;2976;49.764;9.796;2022-08-19T15:26:53;25.10;1.00
5901;DHT22;2976;49.764;9.796;2022-08-19T15:29:21;25.00;1.00
5901;DHT22;2976;49.764;9.796;2022-08-19T15:31:53;24.90;1.00
5901;DHT22;2976;49.764;9.796;2022-08-19T15:34:22;25.00;1.00
5901;DHT22;2976;49.764;9.796;2022-08-19T15:36:47;25.10;1.00
5901;DHT22;2976;49.764;9.796;2022-08-19T15:39:13;25.10;1.00
5901;DHT22;2976;49.764;9.796;2022-08-19T15:41:38;25.00;1.00
5901;DHT22;2976;49.764;9.796;2022-08-19T15:44:09;25.10;1.00
5901;DHT22;2976;49.764;9.796;2022-08-19T15:46:37;25.10;1.00
5901;DHT22;2976;49.764;9.796;2022-08-19T15:49:03;25.10;1.00
5901;DHT22;2976;49.764;9.796;2022-08-19T15:51:30;25.20;1.00
5901;DHT22;2976;49.764;9.796;2022-08-19T15:53:58;25.30;1.00
5901;DHT22;2976;49.764;9.796;2022-08-19T15:56:24;25.30;1.00
5901;DHT22;2976;49.764;9.796;2022-08-19T15:58:49;25.30;1.00
5901;DHT22;2976;49.764;9.796;2022-08-19T16:01:33;25.30;1.00
5901;DHT22;2976;49.764;9.796;2022-08-19T16:04:17;25.40;1.00
5901;DHT22;2976;49.764;9.796;2022-08-19T16:07:01;25.50;1.00
5901;DHT22;2976;49.764;9.796;2022-08-19T16:09:29;25.50;1.00
5901;DHT22;2976;49.764;9.796;2022-08-19T16:11:59;25.40;1.00
5901;DHT22;2976;49.764;9.796;2022-08-19T16:14:26;25.40;1.00
5901;DHT22;2976;49.764;9.796;2022-08-19T16:16:52;25.40;1.00
5901;DHT22;2976;49.764;9.796;2022-08-19T16:19:21;25.30;1.00
5901;DHT22;2976;49.764;9.796;2022-08-19T16:21:49;25.30;1.00
5901;DHT22;2976;49.764;9.796;2022-08-19T16:24:18;25.30;1.00